sensor_id;sensor_type;location;lat;lon;timestamp;P1;durP1;ratioP1;P2;durP2;ratioP2
70953;SDS011;58618;47.490;8.736;2022-07-26T00:00:21;6.30;;;3.25;;
70953;SDS011;58618;47.490;8.736;2022-07-26T00:03:08;5.15;;;3.65;;
70953;SDS011;58618;47.490;8.736;2022-07-26T00:05:57;5.03;;;3.20;;
70953;SDS011;58618;47.490;8.736;2022-07-26T00:08:45;5.28;;;3.70;;
70953;SDS011;58618;47.490;8.736;2022-07-26T00:11:33;5.43;;;3.10;;
70953;SDS011;58618;47.490;8.736;2022-07-26T00:14:21;7.60;;;3.20;;
70953;SDS011;58618;47.490;8.736;2022-07-26T00:17:09;7.38;;;3.20;;
70953;SDS011;58618;47.490;8.736;2022-07-26T00:19:56;4.87;;;2.93;;
70953;SDS011;58618;47.490;8.736;2022-07-26T00:22:45;5.40;;;3.28;;
70953;SDS011;58618;47.490;8.736;2022-07-26T00:25:32;7.72;;;3.33;;
70953;SDS011;58618;47.490;8.736;2022-07-26T00:28:19;4.35;;;2.90;;
70953;SDS011;58618;47.490;8.736;2022-07-26T00:31:07;4.82;;;2.80;;
70953;SDS011;58618;47.490;8.736;2022-07-26T00:33:56;5.10;;;2.40;;
70953;SDS011;58618;47.490;8.736;2022-07-26T00:36:43;5.30;;;2.70;;
70953;SDS011;58618;47.490;8.736;2022-07-26T00:39:32;4.00;;;2.60;;
70953;SDS011;58618;47.490;8.736;2022-07-26T00:42:19;10.55;;;3.10;;
70953;SDS011;58618;47.490;8.736;2022-07-26T00:45:07;6.10;;;2.63;;
70953;SDS011;58618;47.490;8.736;2022-07-26T00:47:57;5.03;;;2.23;;
70953;SDS011;58618;47.490;8.736;2022-07-26T00:50:44;5.45;;;2.33;;
70953;SDS011;58618;47.490;8.736;2022-07-26T00:53:32;4.72;;;2.38;;
70953;SDS011;58618;47.490;8.736;2022-07-26T00:56:21;5.40;;;2.30;;
70953;SDS011;58618;47.490;8.736;2022-07-26T00:59:08;4.20;;;2.28;;
70953;SDS011;58618;47.490;8.736;2022-07-26T01:01:56;4.80;;;2.27;;
70953;SDS011;58618;47.490;8.736;2022-07-26T01:04:43;4.57;;;1.80;;
70953;SDS011;58618;47.490;8.736;2022-07-26T01:07:31;4.07;;;2.15;;
70953;SDS011;58618;47.490;8.736;2022-07-26T01:10:18;5.20;;;2.30;;
70953;SDS011;58618;47.490;8.736;2022-07-26T01:13:07;3.75;;;2.25;;
70953;SDS011;58618;47.490;8.736;2022-07-26T01:15:55;4.83;;;1.90;;
70953;SDS011;58618;47.490;8.736;2022-07-26T01:18:42;4.18;;;2.00;;
70953;SDS011;58618;47.490;8.736;2022-07-26T01:21:31;7.10;;;2.17;;
70953;SDS011;58618;47.490;8.736;2022-07-26T01:24:19;5.38;;;2.40;;
70953;SDS011;58618;47.490;8.736;2022-07-26T01:27:07;4.30;;;2.20;;
70953;SDS011;58618;47.490;8.736;2022-07-26T01:29:54;4.00;;;1.97;;
70953;SDS011;58618;47.490;8.736;2022-07-26T01:32:42;4.82;;;1.75;;
70953;SDS011;58618;47.490;8.736;2022-07-26T01:35:29;4.03;;;2.20;;
70953;SDS011;58618;47.490;8.736;2022-07-26T01:38:18;5.07;;;2.40;;
70953;SDS011;58618;47.490;8.736;2022-07-26T01:41:05;4.22;;;2.38;;
70953;SDS011;58618;47.490;8.736;2022-07-26T01:43:53;3.97;;;2.40;;
70953;SDS011;58618;47.490;8.736;2022-07-26T01:46:41;4.45;;;1.98;;
70953;SDS011;58618;47.490;8.736;2022-07-26T01:49:28;5.93;;;2.30;;
70953;SDS011;58618;47.490;8.736;2022-07-26T01:52:16;3.55;;;2.20;;
70953;SDS011;58618;47.490;8.736;2022-07-26T01:55:05;5.68;;;2.20;;
70953;SDS011;58618;47.490;8.736;2022-07-26T01:57:52;6.37;;;2.27;;
70953;SDS011;58618;47.490;8.736;2022-07-26T02:00:40;5.60;;;2.78;;
70953;SDS011;58618;47.490;8.736;2022-07-26T02:03:27;4.00;;;2.30;;
70953;SDS011;58618;47.490;8.736;2022-07-26T02:06:15;4.03;;;2.45;;
70953;SDS011;58618;47.490;8.736;2022-07-26T02:09:02;5.10;;;2.50;;
70953;SDS011;58618;47.490;8.736;2022-07-26T02:11:51;5.80;;;2.57;;
70953;SDS011;58618;47.490;8.736;2022-07-26T02:14:38;5.55;;;2.72;;
70953;SDS011;58618;47.490;8.736;2022-07-26T02:17:26;4.85;;;2.50;;
70953;SDS011;58618;47.490;8.736;2022-07-26T02:20:13;4.82;;;2.40;;
70953;SDS011;58618;47.490;8.736;2022-07-26T02:23:02;3.10;;;2.30;;
70953;SDS011;58618;47.490;8.736;2022-07-26T02:25:49;4.37;;;2.40;;
70953;SDS011;58618;47.490;8.736;2022-07-26T02:28:38;3.95;;;2.10;;
70953;SDS011;58618;47.490;8.736;2022-07-26T02:31:26;2.55;;;2.30;;
70953;SDS011;58618;47.490;8.736;2022-07-26T02:34:14;6.43;;;2.22;;
70953;SDS011;58618;47.490;8.736;2022-07-26T02:37:01;3.75;;;2.20;;
70953;SDS011;58618;47.490;8.736;2022-07-26T02:39:49;4.53;;;2.17;;
70953;SDS011;58618;47.490;8.736;2022-07-26T02:42:36;6.57;;;2.35;;
70953;SDS011;58618;47.490;8.736;2022-07-26T02:45:25;3.22;;;2.17;;
70953;SDS011;58618;47.490;8.736;2022-07-26T02:48:13;4.00;;;2.10;;
70953;SDS011;58618;47.490;8.736;2022-07-26T02:51:00;4.40;;;2.00;;
70953;SDS011;58618;47.490;8.736;2022-07-26T02:53:48;4.63;;;2.30;;
70953;SDS011;58618;47.490;8.736;2022-07-26T02:56:35;5.90;;;2.47;;
70953;SDS011;58618;47.490;8.736;2022-07-26T02:59:22;4.05;;;2.10;;
70953;SDS011;58618;47.490;8.736;2022-07-26T03:02:11;5.50;;;2.53;;
70953;SDS011;58618;47.490;8.736;2022-07-26T03:04:58;3.63;;;2.05;;
70953;SDS011;58618;47.490;8.736;2022-07-26T03:07:47;3.63;;;2.23;;
70953;SDS011;58618;47.490;8.736;2022-07-26T03:10:34;4.88;;;1.90;;
70953;SDS011;58618;47.490;8.736;2022-07-26T03:13:21;4.35;;;2.00;;
70953;SDS011;58618;47.490;8.736;2022-07-26T03:16:09;3.42;;;1.70;;
70953;SDS011;58618;47.490;8.736;2022-07-26T03:18:57;2.67;;;1.60;;
70953;SDS011;58618;47.490;8.736;2022-07-26T03:21:46;3.50;;;1.70;;
70953;SDS011;58618;47.490;8.736;2022-07-26T03:24:33;2.67;;;1.83;;
70953;SDS011;58618;47.490;8.736;2022-07-26T03:27:20;5.68;;;1.80;;
70953;SDS011;58618;47.490;8.736;2022-07-26T03:30:08;3.53;;;1.50;;
70953;SDS011;58618;47.490;8.736;2022-07-26T03:32:56;2.72;;;1.60;;
70953;SDS011;58618;47.490;8.736;2022-07-26T03:35:45;3.80;;;1.53;;
70953;SDS011;58618;47.490;8.736;2022-07-26T03:38:32;2.75;;;1.48;;
70953;SDS011;58618;47.490;8.736;2022-07-26T03:41:20;2.70;;;1.52;;
70953;SDS011;58618;47.490;8.736;2022-07-26T03:44:08;3.13;;;1.60;;
70953;SDS011;58618;47.490;8.736;2022-07-26T03:46:55;2.30;;;1.70;;
70953;SDS011;58618;47.490;8.736;2022-07-26T03:49:43;3.40;;;1.73;;
70953;SDS011;58618;47.490;8.736;2022-07-26T03:52:31;4.45;;;1.70;;
70953;SDS011;58618;47.490;8.736;2022-07-26T03:55:19;3.35;;;2.05;;
70953;SDS011;58618;47.490;8.736;2022-07-26T03:58:24;3.75;;;1.52;;
70953;SDS011;58618;47.490;8.736;2022-07-26T04:01:12;2.78;;;1.30;;
70953;SDS011;58618;47.490;8.736;2022-07-26T04:03:59;2.50;;;1.50;;
70953;SDS011;58618;47.490;8.736;2022-07-26T04:06:47;3.25;;;1.33;;
70953;SDS011;58618;47.490;8.736;2022-07-26T04:09:35;2.67;;;1.60;;
70953;SDS011;58618;47.490;8.736;2022-07-26T04:12:22;2.15;;;1.20;;
70953;SDS011;58618;47.490;8.736;2022-07-26T04:15:10;3.45;;;1.05;;
70953;SDS011;58618;47.490;8.736;2022-07-26T04:17:57;1.53;;;0.90;;
70953;SDS011;58618;47.490;8.736;2022-07-26T04:20:45;1.92;;;1.40;;
70953;SDS011;58618;47.490;8.736;2022-07-26T04:23:32;4.57;;;1.60;;
70953;SDS011;58618;47.490;8.736;2022-07-26T04:26:21;2.03;;;1.25;;
70953;SDS011;58618;47.490;8.736;2022-07-26T04:29:08;2.42;;;1.30;;
70953;SDS011;58618;47.490;8.736;2022-07-26T04:31:57;3.40;;;1.00;;
70953;SDS011;58618;47.490;8.736;2022-07-26T04:34:44;2.72;;;1.13;;
70953;SDS011;58618;47.490;8.736;2022-07-26T04:37:36;3.15;;;1.17;;
70953;SDS011;58618;47.490;8.736;2022-07-26T04:40:25;1.92;;;1.20;;
70953;SDS011;58618;47.490;8.736;2022-07-26T04:43:14;2.63;;;1.52;;
70953;SDS011;58618;47.490;8.736;2022-07-26T04:46:02;4.37;;;1.33;;
70953;SDS011;58618;47.490;8.736;2022-07-26T04:48:50;2.03;;;1.40;;
70953;SDS011;58618;47.490;8.736;2022-07-26T04:51:37;2.50;;;1.30;;
70953;SDS011;58618;47.490;8.736;2022-07-26T04:54:24;3.00;;;1.25;;
70953;SDS011;58618;47.490;8.736;2022-07-26T04:57:12;2.80;;;1.27;;
70953;SDS011;58618;47.490;8.736;2022-07-26T05:00:01;2.97;;;1.23;;
70953;SDS011;58618;47.490;8.736;2022-07-26T05:02:51;3.38;;;1.33;;
70953;SDS011;58618;47.490;8.736;2022-07-26T05:05:39;4.80;;;1.30;;
70953;SDS011;58618;47.490;8.736;2022-07-26T05:08:27;2.67;;;1.48;;
70953;SDS011;58618;47.490;8.736;2022-07-26T05:11:15;3.25;;;1.25;;
70953;SDS011;58618;47.490;8.736;2022-07-26T05:14:02;2.50;;;1.20;;
70953;SDS011;58618;47.490;8.736;2022-07-26T05:16:51;2.10;;;1.33;;
70953;SDS011;58618;47.490;8.736;2022-07-26T05:19:38;2.17;;;1.13;;
70953;SDS011;58618;47.490;8.736;2022-07-26T05:22:25;5.18;;;1.40;;
70953;SDS011;58618;47.490;8.736;2022-07-26T05:25:13;2.75;;;1.40;;
70953;SDS011;58618;47.490;8.736;2022-07-26T05:28:00;3.10;;;1.40;;
70953;SDS011;58618;47.490;8.736;2022-07-26T05:30:48;2.00;;;1.48;;
70953;SDS011;58618;47.490;8.736;2022-07-26T05:33:36;2.35;;;1.45;;
70953;SDS011;58618;47.490;8.736;2022-07-26T05:36:24;2.78;;;1.60;;
70953;SDS011;58618;47.490;8.736;2022-07-26T05:39:11;2.47;;;1.50;;
70953;SDS011;58618;47.490;8.736;2022-07-26T05:41:59;1.50;;;1.20;;
70953;SDS011;58618;47.490;8.736;2022-07-26T05:44:46;3.03;;;1.52;;
70953;SDS011;58618;47.490;8.736;2022-07-26T05:47:33;3.28;;;1.65;;
70953;SDS011;58618;47.490;8.736;2022-07-26T05:50:22;2.28;;;1.42;;
70953;SDS011;58618;47.490;8.736;2022-07-26T05:53:09;1.50;;;1.33;;
70953;SDS011;58618;47.490;8.736;2022-07-26T05:55:56;3.23;;;1.70;;
70953;SDS011;58618;47.490;8.736;2022-07-26T05:58:44;2.97;;;1.52;;
70953;SDS011;58618;47.490;8.736;2022-07-26T06:01:31;2.20;;;1.48;;
70953;SDS011;58618;47.490;8.736;2022-07-26T06:04:19;1.75;;;1.30;;
70953;SDS011;58618;47.490;8.736;2022-07-26T06:07:08;3.13;;;1.60;;
70953;SDS011;58618;47.490;8.736;2022-07-26T06:09:55;1.73;;;1.20;;
70953;SDS011;58618;47.490;8.736;2022-07-26T06:12:43;2.95;;;1.48;;
70953;SDS011;58618;47.490;8.736;2022-07-26T06:15:30;1.52;;;1.20;;
70953;SDS011;58618;47.490;8.736;2022-07-26T06:18:17;1.83;;;1.50;;
70953;SDS011;58618;47.490;8.736;2022-07-26T06:21:05;3.65;;;1.67;;
70953;SDS011;58618;47.490;8.736;2022-07-26T06:23:54;1.83;;;1.50;;
70953;SDS011;58618;47.490;8.736;2022-07-26T06:26:41;3.45;;;1.60;;
70953;SDS011;58618;47.490;8.736;2022-07-26T06:29:29;3.80;;;1.77;;
70953;SDS011;58618;47.490;8.736;2022-07-26T06:32:16;3.50;;;1.60;;
70953;SDS011;58618;47.490;8.736;2022-07-26T06:35:04;2.67;;;1.70;;
70953;SDS011;58618;47.490;8.736;2022-07-26T06:37:51;2.30;;;1.57;;
70953;SDS011;58618;47.490;8.736;2022-07-26T06:40:40;3.05;;;1.52;;
70953;SDS011;58618;47.490;8.736;2022-07-26T06:43:27;4.03;;;1.50;;
70953;SDS011;58618;47.490;8.736;2022-07-26T06:46:15;3.63;;;1.38;;
70953;SDS011;58618;47.490;8.736;2022-07-26T06:49:04;3.15;;;1.90;;
70953;SDS011;58618;47.490;8.736;2022-07-26T06:51:51;4.27;;;2.00;;
70953;SDS011;58618;47.490;8.736;2022-07-26T06:54:38;4.40;;;1.52;;
70953;SDS011;58618;47.490;8.736;2022-07-26T06:57:27;2.42;;;1.55;;
70953;SDS011;58618;47.490;8.736;2022-07-26T07:00:15;3.17;;;1.90;;
70953;SDS011;58618;47.490;8.736;2022-07-26T07:03:03;2.92;;;1.80;;
70953;SDS011;58618;47.490;8.736;2022-07-26T07:05:51;4.30;;;1.70;;
70953;SDS011;58618;47.490;8.736;2022-07-26T07:08:38;2.80;;;1.90;;
70953;SDS011;58618;47.490;8.736;2022-07-26T07:11:25;3.60;;;1.70;;
70953;SDS011;58618;47.490;8.736;2022-07-26T07:14:14;2.88;;;1.60;;
70953;SDS011;58618;47.490;8.736;2022-07-26T07:17:02;3.22;;;2.00;;
70953;SDS011;58618;47.490;8.736;2022-07-26T07:19:49;2.60;;;2.00;;
70953;SDS011;58618;47.490;8.736;2022-07-26T07:22:36;4.45;;;2.35;;
70953;SDS011;58618;47.490;8.736;2022-07-26T07:25:23;4.30;;;1.90;;
70953;SDS011;58618;47.490;8.736;2022-07-26T07:28:11;5.60;;;2.30;;
70953;SDS011;58618;47.490;8.736;2022-07-26T07:30:59;3.05;;;2.33;;
70953;SDS011;58618;47.490;8.736;2022-07-26T07:33:47;3.43;;;2.00;;
70953;SDS011;58618;47.490;8.736;2022-07-26T07:36:34;3.60;;;2.15;;
70953;SDS011;58618;47.490;8.736;2022-07-26T07:39:21;4.10;;;2.17;;
70953;SDS011;58618;47.490;8.736;2022-07-26T07:42:09;3.38;;;2.22;;
70953;SDS011;58618;47.490;8.736;2022-07-26T07:44:56;3.53;;;2.20;;
70953;SDS011;58618;47.490;8.736;2022-07-26T07:47:45;5.13;;;2.43;;
70953;SDS011;58618;47.490;8.736;2022-07-26T07:50:32;3.67;;;2.30;;
70953;SDS011;58618;47.490;8.736;2022-07-26T07:53:19;4.50;;;2.33;;
70953;SDS011;58618;47.490;8.736;2022-07-26T07:56:07;3.78;;;2.28;;
70953;SDS011;58618;47.490;8.736;2022-07-26T07:58:54;5.38;;;2.42;;
70953;SDS011;58618;47.490;8.736;2022-07-26T08:01:41;4.80;;;2.10;;
70953;SDS011;58618;47.490;8.736;2022-07-26T08:04:30;3.92;;;2.20;;
70953;SDS011;58618;47.490;8.736;2022-07-26T08:07:18;3.45;;;2.15;;
70953;SDS011;58618;47.490;8.736;2022-07-26T08:10:05;3.72;;;2.03;;
70953;SDS011;58618;47.490;8.736;2022-07-26T08:12:53;5.55;;;2.35;;
70953;SDS011;58618;47.490;8.736;2022-07-26T08:15:41;4.67;;;2.63;;
70953;SDS011;58618;47.490;8.736;2022-07-26T08:18:28;4.38;;;2.30;;
70953;SDS011;58618;47.490;8.736;2022-07-26T08:21:17;4.40;;;2.28;;
70953;SDS011;58618;47.490;8.736;2022-07-26T08:24:04;4.38;;;2.33;;
70953;SDS011;58618;47.490;8.736;2022-07-26T08:26:52;4.13;;;2.53;;
70953;SDS011;58618;47.490;8.736;2022-07-26T08:29:39;5.63;;;2.40;;
70953;SDS011;58618;47.490;8.736;2022-07-26T08:32:27;4.95;;;2.50;;
70953;SDS011;58618;47.490;8.736;2022-07-26T08:35:14;4.28;;;2.50;;
70953;SDS011;58618;47.490;8.736;2022-07-26T08:38:03;4.43;;;2.78;;
70953;SDS011;58618;47.490;8.736;2022-07-26T08:40:50;4.53;;;2.63;;
70953;SDS011;58618;47.490;8.736;2022-07-26T08:43:38;3.27;;;2.30;;
70953;SDS011;58618;47.490;8.736;2022-07-26T08:46:26;3.97;;;2.63;;
70953;SDS011;58618;47.490;8.736;2022-07-26T08:49:13;4.15;;;2.60;;
70953;SDS011;58618;47.490;8.736;2022-07-26T08:52:00;4.07;;;2.72;;
70953;SDS011;58618;47.490;8.736;2022-07-26T08:54:50;4.03;;;2.22;;
70953;SDS011;58618;47.490;8.736;2022-07-26T08:57:38;5.67;;;2.60;;
70953;SDS011;58618;47.490;8.736;2022-07-26T09:00:26;3.05;;;2.60;;
70953;SDS011;58618;47.490;8.736;2022-07-26T09:03:22;4.60;;;2.38;;
70953;SDS011;58618;47.490;8.736;2022-07-26T09:06:11;2.97;;;2.40;;
70953;SDS011;58618;47.490;8.736;2022-07-26T09:09:08;4.03;;;2.33;;
70953;SDS011;58618;47.490;8.736;2022-07-26T09:12:00;4.40;;;2.37;;
70953;SDS011;58618;47.490;8.736;2022-07-26T09:14:59;3.97;;;2.42;;
70953;SDS011;58618;47.490;8.736;2022-07-26T09:17:48;3.55;;;2.38;;
70953;SDS011;58618;47.490;8.736;2022-07-26T09:20:38;5.72;;;2.65;;
70953;SDS011;58618;47.490;8.736;2022-07-26T09:23:38;4.10;;;2.30;;
70953;SDS011;58618;47.490;8.736;2022-07-26T09:26:26;6.77;;;2.10;;
70953;SDS011;58618;47.490;8.736;2022-07-26T09:29:15;5.07;;;2.50;;
70953;SDS011;58618;47.490;8.736;2022-07-26T09:32:09;3.20;;;1.95;;
70953;SDS011;58618;47.490;8.736;2022-07-26T09:35:08;2.55;;;1.77;;
70953;SDS011;58618;47.490;8.736;2022-07-26T09:37:56;4.13;;;2.47;;
70953;SDS011;58618;47.490;8.736;2022-07-26T09:40:44;4.03;;;2.30;;
70953;SDS011;58618;47.490;8.736;2022-07-26T09:43:35;2.70;;;2.25;;
70953;SDS011;58618;47.490;8.736;2022-07-26T09:46:24;3.60;;;1.90;;
70953;SDS011;58618;47.490;8.736;2022-07-26T09:49:15;2.72;;;1.88;;
70953;SDS011;58618;47.490;8.736;2022-07-26T09:52:04;3.28;;;1.90;;
70953;SDS011;58618;47.490;8.736;2022-07-26T09:55:03;3.33;;;1.93;;
70953;SDS011;58618;47.490;8.736;2022-07-26T09:57:51;4.05;;;2.10;;
70953;SDS011;58618;47.490;8.736;2022-07-26T10:00:39;3.53;;;2.00;;
70953;SDS011;58618;47.490;8.736;2022-07-26T10:03:29;2.85;;;2.05;;
70953;SDS011;58618;47.490;8.736;2022-07-26T10:06:17;2.88;;;1.90;;
70953;SDS011;58618;47.490;8.736;2022-07-26T10:09:04;4.53;;;1.97;;
70953;SDS011;58618;47.490;8.736;2022-07-26T10:11:53;5.38;;;2.30;;
70953;SDS011;58618;47.490;8.736;2022-07-26T10:14:44;3.55;;;1.80;;
70953;SDS011;58618;47.490;8.736;2022-07-26T10:23:42;3.00;;;2.20;;
70953;SDS011;58618;47.490;8.736;2022-07-26T10:26:34;4.05;;;1.90;;
70953;SDS011;58618;47.490;8.736;2022-07-26T10:29:27;3.65;;;2.10;;
70953;SDS011;58618;47.490;8.736;2022-07-26T10:32:15;4.05;;;2.10;;
70953;SDS011;58618;47.490;8.736;2022-07-26T10:38:22;2.73;;;1.90;;
70953;SDS011;58618;47.490;8.736;2022-07-26T10:41:11;3.20;;;2.03;;
70953;SDS011;58618;47.490;8.736;2022-07-26T10:44:11;3.22;;;2.00;;
70953;SDS011;58618;47.490;8.736;2022-07-26T10:47:13;3.85;;;2.10;;
70953;SDS011;58618;47.490;8.736;2022-07-26T10:50:03;3.00;;;2.00;;
70953;SDS011;58618;47.490;8.736;2022-07-26T10:52:56;2.70;;;2.00;;
70953;SDS011;58618;47.490;8.736;2022-07-26T10:55:46;4.18;;;1.80;;
70953;SDS011;58618;47.490;8.736;2022-07-26T10:58:40;3.25;;;2.03;;
70953;SDS011;58618;47.490;8.736;2022-07-26T11:01:32;3.38;;;2.10;;
70953;SDS011;58618;47.490;8.736;2022-07-26T11:04:20;4.10;;;2.47;;
70953;SDS011;58618;47.490;8.736;2022-07-26T11:07:08;2.97;;;2.33;;
70953;SDS011;58618;47.490;8.736;2022-07-26T11:09:55;6.00;;;2.25;;
70953;SDS011;58618;47.490;8.736;2022-07-26T11:12:44;2.55;;;1.98;;
70953;SDS011;58618;47.490;8.736;2022-07-26T11:15:32;2.47;;;2.10;;
70953;SDS011;58618;47.490;8.736;2022-07-26T11:18:21;2.85;;;1.83;;
70953;SDS011;58618;47.490;8.736;2022-07-26T11:21:13;3.07;;;1.90;;
70953;SDS011;58618;47.490;8.736;2022-07-26T11:24:01;3.20;;;1.83;;
70953;SDS011;58618;47.490;8.736;2022-07-26T11:26:49;2.78;;;1.90;;
70953;SDS011;58618;47.490;8.736;2022-07-26T11:29:37;3.17;;;2.20;;
70953;SDS011;58618;47.490;8.736;2022-07-26T11:32:25;2.70;;;1.95;;
70953;SDS011;58618;47.490;8.736;2022-07-26T11:35:13;4.27;;;1.97;;
70953;SDS011;58618;47.490;8.736;2022-07-26T11:38:00;3.47;;;1.92;;
70953;SDS011;58618;47.490;8.736;2022-07-26T11:40:49;3.35;;;1.90;;
70953;SDS011;58618;47.490;8.736;2022-07-26T11:43:36;4.35;;;1.88;;
70953;SDS011;58618;47.490;8.736;2022-07-26T11:46:31;3.65;;;1.88;;
70953;SDS011;58618;47.490;8.736;2022-07-26T11:49:22;5.90;;;1.90;;
70953;SDS011;58618;47.490;8.736;2022-07-26T11:52:10;3.63;;;1.80;;
70953;SDS011;58618;47.490;8.736;2022-07-26T11:54:58;3.28;;;1.70;;
70953;SDS011;58618;47.490;8.736;2022-07-26T11:57:46;3.05;;;1.63;;
70953;SDS011;58618;47.490;8.736;2022-07-26T12:00:33;2.58;;;1.42;;
70953;SDS011;58618;47.490;8.736;2022-07-26T12:03:22;2.57;;;1.60;;
70953;SDS011;58618;47.490;8.736;2022-07-26T12:06:10;2.22;;;1.33;;
70953;SDS011;58618;47.490;8.736;2022-07-26T12:08:59;3.60;;;1.80;;
70953;SDS011;58618;47.490;8.736;2022-07-26T12:11:46;2.95;;;1.60;;
70953;SDS011;58618;47.490;8.736;2022-07-26T12:14:35;4.47;;;1.70;;
70953;SDS011;58618;47.490;8.736;2022-07-26T12:17:23;3.00;;;1.50;;
70953;SDS011;58618;47.490;8.736;2022-07-26T12:20:13;2.63;;;1.63;;
70953;SDS011;58618;47.490;8.736;2022-07-26T12:23:01;5.80;;;1.70;;
70953;SDS011;58618;47.490;8.736;2022-07-26T12:25:50;1.85;;;1.55;;
70953;SDS011;58618;47.490;8.736;2022-07-26T12:28:38;3.55;;;1.67;;
70953;SDS011;58618;47.490;8.736;2022-07-26T12:31:26;2.57;;;1.70;;
70953;SDS011;58618;47.490;8.736;2022-07-26T12:34:18;2.45;;;1.70;;
70953;SDS011;58618;47.490;8.736;2022-07-26T12:37:11;3.28;;;1.38;;
70953;SDS011;58618;47.490;8.736;2022-07-26T12:40:02;3.75;;;1.70;;
70953;SDS011;58618;47.490;8.736;2022-07-26T12:42:53;2.78;;;1.55;;
70953;SDS011;58618;47.490;8.736;2022-07-26T12:45:42;2.97;;;1.63;;
70953;SDS011;58618;47.490;8.736;2022-07-26T12:48:30;2.88;;;1.50;;
70953;SDS011;58618;47.490;8.736;2022-07-26T12:51:17;3.00;;;1.60;;
70953;SDS011;58618;47.490;8.736;2022-07-26T12:54:07;5.97;;;1.70;;
70953;SDS011;58618;47.490;8.736;2022-07-26T12:56:54;2.58;;;1.52;;
70953;SDS011;58618;47.490;8.736;2022-07-26T12:59:42;4.03;;;1.60;;
70953;SDS011;58618;47.490;8.736;2022-07-26T13:02:29;3.75;;;1.70;;
70953;SDS011;58618;47.490;8.736;2022-07-26T13:05:17;3.20;;;1.85;;
70953;SDS011;58618;47.490;8.736;2022-07-26T13:08:04;2.80;;;1.63;;
70953;SDS011;58618;47.490;8.736;2022-07-26T13:10:53;1.98;;;1.55;;
70953;SDS011;58618;47.490;8.736;2022-07-26T13:13:40;2.53;;;1.90;;
70953;SDS011;58618;47.490;8.736;2022-07-26T13:16:28;2.78;;;1.80;;
70953;SDS011;58618;47.490;8.736;2022-07-26T13:19:15;3.00;;;1.83;;
70953;SDS011;58618;47.490;8.736;2022-07-26T13:22:03;3.35;;;1.60;;
70953;SDS011;58618;47.490;8.736;2022-07-26T13:24:51;2.90;;;1.58;;
70953;SDS011;58618;47.490;8.736;2022-07-26T13:27:40;10.27;;;1.93;;
70953;SDS011;58618;47.490;8.736;2022-07-26T13:30:27;3.40;;;2.00;;
70953;SDS011;58618;47.490;8.736;2022-07-26T13:33:14;4.63;;;2.08;;
70953;SDS011;58618;47.490;8.736;2022-07-26T13:36:02;4.47;;;1.77;;
70953;SDS011;58618;47.490;8.736;2022-07-26T13:38:49;3.75;;;1.75;;
70953;SDS011;58618;47.490;8.736;2022-07-26T13:41:37;3.60;;;1.60;;
70953;SDS011;58618;47.490;8.736;2022-07-26T13:44:25;6.20;;;1.95;;
70953;SDS011;58618;47.490;8.736;2022-07-26T13:47:13;3.72;;;1.85;;
70953;SDS011;58618;47.490;8.736;2022-07-26T13:50:01;3.85;;;1.70;;
70953;SDS011;58618;47.490;8.736;2022-07-26T13:52:48;2.85;;;1.83;;
70953;SDS011;58618;47.490;8.736;2022-07-26T13:55:36;2.93;;;1.87;;
70953;SDS011;58618;47.490;8.736;2022-07-26T13:58:23;3.65;;;2.10;;
70953;SDS011;58618;47.490;8.736;2022-07-26T14:01:12;2.78;;;1.67;;
70953;SDS011;58618;47.490;8.736;2022-07-26T14:04:01;3.65;;;1.60;;
70953;SDS011;58618;47.490;8.736;2022-07-26T14:06:55;1.90;;;1.50;;
70953;SDS011;58618;47.490;8.736;2022-07-26T14:09:43;2.83;;;1.70;;
70953;SDS011;58618;47.490;8.736;2022-07-26T14:12:30;3.67;;;1.60;;
70953;SDS011;58618;47.490;8.736;2022-07-26T14:15:19;3.35;;;1.48;;
70953;SDS011;58618;47.490;8.736;2022-07-26T14:18:08;3.25;;;1.80;;
70953;SDS011;58618;47.490;8.736;2022-07-26T14:20:55;3.58;;;1.52;;
70953;SDS011;58618;47.490;8.736;2022-07-26T14:23:42;3.83;;;1.70;;
70953;SDS011;58618;47.490;8.736;2022-07-26T14:26:29;2.65;;;1.50;;
70953;SDS011;58618;47.490;8.736;2022-07-26T14:29:17;2.42;;;1.40;;
70953;SDS011;58618;47.490;8.736;2022-07-26T14:32:04;2.17;;;1.30;;
70953;SDS011;58618;47.490;8.736;2022-07-26T14:34:54;3.58;;;1.52;;
70953;SDS011;58618;47.490;8.736;2022-07-26T14:37:41;3.13;;;1.30;;
70953;SDS011;58618;47.490;8.736;2022-07-26T14:40:28;2.45;;;1.20;;
70953;SDS011;58618;47.490;8.736;2022-07-26T14:43:16;1.92;;;1.30;;
70953;SDS011;58618;47.490;8.736;2022-07-26T14:46:04;2.83;;;1.35;;
70953;SDS011;58618;47.490;8.736;2022-07-26T14:48:51;2.25;;;1.38;;
70953;SDS011;58618;47.490;8.736;2022-07-26T14:51:40;2.63;;;1.40;;
70953;SDS011;58618;47.490;8.736;2022-07-26T14:54:27;5.18;;;1.45;;
70953;SDS011;58618;47.490;8.736;2022-07-26T14:57:14;2.75;;;1.40;;
70953;SDS011;58618;47.490;8.736;2022-07-26T15:00:04;2.60;;;1.42;;
70953;SDS011;58618;47.490;8.736;2022-07-26T15:02:52;3.95;;;1.60;;
70953;SDS011;58618;47.490;8.736;2022-07-26T15:05:40;1.77;;;1.20;;
70953;SDS011;58618;47.490;8.736;2022-07-26T15:08:28;2.63;;;1.40;;
70953;SDS011;58618;47.490;8.736;2022-07-26T15:11:16;6.35;;;1.40;;
70953;SDS011;58618;47.490;8.736;2022-07-26T15:14:03;4.15;;;1.15;;
70953;SDS011;58618;47.490;8.736;2022-07-26T15:16:50;1.95;;;1.40;;
70953;SDS011;58618;47.490;8.736;2022-07-26T15:19:38;3.83;;;1.57;;
70953;SDS011;58618;47.490;8.736;2022-07-26T15:22:25;3.63;;;1.40;;
70953;SDS011;58618;47.490;8.736;2022-07-26T15:25:14;3.13;;;1.23;;
70953;SDS011;58618;47.490;8.736;2022-07-26T15:28:01;3.40;;;1.20;;
70953;SDS011;58618;47.490;8.736;2022-07-26T15:30:49;2.72;;;1.30;;
70953;SDS011;58618;47.490;8.736;2022-07-26T15:33:36;4.80;;;1.17;;
70953;SDS011;58618;47.490;8.736;2022-07-26T15:36:24;1.77;;;1.20;;
70953;SDS011;58618;47.490;8.736;2022-07-26T15:39:11;3.53;;;1.10;;
70953;SDS011;58618;47.490;8.736;2022-07-26T15:42:00;2.00;;;1.30;;
70953;SDS011;58618;47.490;8.736;2022-07-26T15:44:47;2.90;;;1.40;;
70953;SDS011;58618;47.490;8.736;2022-07-26T15:47:35;2.23;;;1.30;;
70953;SDS011;58618;47.490;8.736;2022-07-26T15:50:22;2.17;;;1.38;;
70953;SDS011;58618;47.490;8.736;2022-07-26T15:53:10;3.38;;;1.30;;
70953;SDS011;58618;47.490;8.736;2022-07-26T15:56:01;3.92;;;1.50;;
70953;SDS011;58618;47.490;8.736;2022-07-26T15:58:49;1.88;;;1.40;;
70953;SDS011;58618;47.490;8.736;2022-07-26T16:01:37;2.97;;;1.40;;
70953;SDS011;58618;47.490;8.736;2022-07-26T16:04:24;2.83;;;1.50;;
70953;SDS011;58618;47.490;8.736;2022-07-26T16:07:14;3.97;;;1.50;;
70953;SDS011;58618;47.490;8.736;2022-07-26T16:10:02;3.15;;;1.30;;
70953;SDS011;58618;47.490;8.736;2022-07-26T16:12:50;1.60;;;1.10;;
70953;SDS011;58618;47.490;8.736;2022-07-26T16:15:39;2.23;;;1.30;;
70953;SDS011;58618;47.490;8.736;2022-07-26T16:18:26;4.07;;;1.25;;
70953;SDS011;58618;47.490;8.736;2022-07-26T16:21:14;3.88;;;1.55;;
70953;SDS011;58618;47.490;8.736;2022-07-26T16:24:01;2.40;;;1.30;;
70953;SDS011;58618;47.490;8.736;2022-07-26T16:26:48;2.60;;;1.60;;
70953;SDS011;58618;47.490;8.736;2022-07-26T16:29:36;3.83;;;1.50;;
70953;SDS011;58618;47.490;8.736;2022-07-26T16:32:24;5.25;;;1.63;;
70953;SDS011;58618;47.490;8.736;2022-07-26T16:35:12;3.60;;;1.48;;
70953;SDS011;58618;47.490;8.736;2022-07-26T16:37:59;3.10;;;1.40;;
70953;SDS011;58618;47.490;8.736;2022-07-26T16:40:47;4.95;;;1.45;;
70953;SDS011;58618;47.490;8.736;2022-07-26T16:43:34;2.20;;;1.20;;
70953;SDS011;58618;47.490;8.736;2022-07-26T16:46:21;5.57;;;1.50;;
70953;SDS011;58618;47.490;8.736;2022-07-26T16:49:10;3.83;;;1.50;;
70953;SDS011;58618;47.490;8.736;2022-07-26T16:51:58;2.38;;;1.23;;
70953;SDS011;58618;47.490;8.736;2022-07-26T16:54:45;3.75;;;1.45;;
70953;SDS011;58618;47.490;8.736;2022-07-26T16:57:32;2.97;;;1.60;;
70953;SDS011;58618;47.490;8.736;2022-07-26T17:00:20;2.88;;;1.50;;
70953;SDS011;58618;47.490;8.736;2022-07-26T17:03:07;2.35;;;1.27;;